createdAt,value
2022-11-14T00:00:57.347Z,56.81562
2022-11-14T00:05:59.017Z,55.2274
2022-11-14T00:11:00.646Z,56.83669
2022-11-14T00:16:02.320Z,57.8461
2022-11-14T00:21:03.948Z,59.68777
2022-11-14T00:26:05.584Z,58.16186
2022-11-14T00:31:07.263Z,60.16881
2022-11-14T00:36:08.959Z,60.87555
2022-11-14T00:41:10.586Z,61.55358
2022-11-14T00:46:12.315Z,61.84679
2022-11-14T00:51:13.981Z,61.45602
2022-11-14T00:56:15.633Z,63.5294
2022-11-14T01:01:17.467Z,59.34485
2022-11-14T01:06:19.254Z,61.21943
2022-11-14T01:11:21.020Z,59.09826
2022-11-14T01:16:22.841Z,59.36335
2022-11-14T01:21:24.558Z,60.89744
2022-11-14T01:26:26.458Z,61.00494
2022-11-14T01:31:28.255Z,58.77565
2022-11-14T01:36:30.015Z,61.32415
2022-11-14T01:41:31.977Z,58.42522
2022-11-14T01:46:33.789Z,60.70463
2022-11-14T01:51:35.368Z,60.1994
2022-11-14T01:56:37.084Z,61.3361
2022-11-14T02:01:39.108Z,62.31676
2022-11-14T02:06:40.838Z,63.9137
2022-11-14T02:11:42.520Z,62.85714
2022-11-14T02:17:00.850Z,59.93216
2022-11-14T02:22:16.514Z,59.41551
2022-11-14T02:27:18.142Z,59.60097
2022-11-14T02:32:19.771Z,59.13533
2022-11-14T02:37:21.621Z,63.60208
2022-11-14T02:42:23.281Z,64.38345
2022-11-14T02:47:24.920Z,66.19471
2022-11-14T02:52:26.634Z,63.38916
2022-11-14T02:57:28.281Z,62.79602
2022-11-14T03:02:30.073Z,61.8358
2022-11-14T03:07:31.847Z,63.11724
2022-11-14T03:12:33.640Z,60.48472
2022-11-14T03:17:35.385Z,61.54999
2022-11-14T03:22:37.045Z,61.97132
2022-11-14T03:27:38.850Z,65.70483
2022-11-14T03:32:40.591Z,63.27696
2022-11-14T03:37:42.289Z,63.43793
2022-11-14T03:42:43.960Z,63.89372
2022-11-14T03:47:45.621Z,64.24216
2022-11-14T03:52:47.403Z,64.80822
2022-11-14T03:57:49.233Z,68.27725
2022-11-14T04:02:50.886Z,65.20051
2022-11-14T04:07:52.712Z,64.03719
2022-11-14T04:12:54.425Z,64.0624
2022-11-14T04:17:56.224Z,65.52893
2022-11-14T04:22:58.804Z,63.0968
2022-11-14T04:28:00.462Z,64.48282
2022-11-14T04:33:02.299Z,66.09675
2022-11-14T04:38:04.120Z,64.42249
2022-11-14T04:43:05.823Z,64.49137
2022-11-14T04:48:07.839Z,64.73098
2022-11-14T04:53:09.574Z,64.76688
2022-11-14T04:58:11.466Z,66.6549
2022-11-14T05:03:14.063Z,67.56438
2022-11-14T05:08:15.899Z,66.22679
2022-11-14T05:13:18.035Z,64.55354
2022-11-14T05:18:20.220Z,65.01324
2022-11-14T05:23:21.969Z,66.60082
2022-11-14T05:28:23.688Z,67.02259
2022-11-14T05:33:25.614Z,69.37049
2022-11-14T05:38:28.459Z,69.21729
2022-11-14T05:43:30.449Z,70.27463
2022-11-14T05:48:32.698Z,69.15496
2022-11-14T05:53:34.680Z,68.82505
2022-11-14T05:58:36.709Z,67.57757
2022-11-14T06:03:38.453Z,65.36712
2022-11-14T06:08:40.692Z,66.58561
2022-11-14T06:13:42.421Z,64.9568
2022-11-14T06:18:44.184Z,65.78738
2022-11-14T06:23:46.826Z,64.53923
2022-11-14T06:28:48.564Z,65.98327
2022-11-14T06:33:50.351Z,63.02845
2022-11-14T06:38:52.336Z,62.86384
2022-11-14T06:43:53.963Z,64.28359
2022-11-14T06:48:55.601Z,63.05886
2022-11-14T06:53:57.274Z,64.53078
2022-11-14T06:58:58.892Z,63.50364
2022-11-14T07:04:00.805Z,62.84958
2022-11-14T07:09:02.694Z,64.71592
2022-11-14T07:14:04.912Z,64.64245
2022-11-14T07:19:06.766Z,64.0767
2022-11-14T07:24:08.501Z,66.06042
2022-11-14T07:29:10.551Z,68.31225
2022-11-14T07:34:13.527Z,66.64937
2022-11-14T07:39:15.243Z,65.01893
2022-11-14T07:44:17.035Z,67.3778
2022-11-14T07:49:18.961Z,63.57727
2022-11-14T07:54:20.673Z,65.50343
2022-11-14T07:59:22.337Z,64.83046
2022-11-14T08:04:24.141Z,65.5233
2022-11-14T08:09:26.016Z,65.4987
2022-11-14T08:14:27.905Z,62.66556
2022-11-14T08:19:29.706Z,63.67428
2022-11-14T08:24:31.345Z,63.22543
2022-11-14T08:29:32.987Z,63.86193
2022-11-14T08:34:34.926Z,63.27155
2022-11-14T08:39:36.688Z,63.74527
2022-11-14T08:44:38.314Z,63.75777
2022-11-14T08:49:39.956Z,65.19548
2022-11-14T08:54:41.652Z,63.87837
2022-11-14T08:59:43.334Z,63.66139
2022-11-14T09:04:45.339Z,63.01948
2022-11-14T09:09:47.147Z,63.83275
2022-11-14T09:14:48.920Z,64.30897
2022-11-14T09:19:50.835Z,65.11819
2022-11-14T09:24:56.246Z,66.37284
2022-11-14T09:29:57.995Z,65.76591
2022-11-14T09:34:59.639Z,64.03947
2022-11-14T09:40:01.359Z,64.68208
2022-11-14T09:45:03.041Z,64.87642
2022-11-14T09:50:04.693Z,66.31511
2022-11-14T09:55:06.337Z,65.01055
2022-11-14T10:00:08.068Z,63.49254
2022-11-14T10:05:09.774Z,65.87555
2022-11-14T10:10:11.405Z,63.48561
2022-11-14T10:15:13.055Z,64.34911
2022-11-14T10:20:14.715Z,65.47757
2022-11-14T10:25:16.411Z,64.81406
2022-11-14T10:30:18.078Z,66.34575
2022-11-14T10:35:20.282Z,66.42125
2022-11-14T10:40:21.995Z,65.39334
2022-11-14T10:45:23.961Z,64.4829
2022-11-14T10:50:25.690Z,66.01248
2022-11-14T10:55:50.114Z,64.09648
2022-11-14T11:00:59.641Z,63.41287
2022-11-14T11:06:01.387Z,63.70464
2022-11-14T11:11:03.067Z,63.50876
2022-11-14T11:16:04.784Z,63.82813
2022-11-14T11:21:06.457Z,64.10429
2022-11-14T11:26:08.247Z,65.10548
2022-11-14T11:31:09.944Z,64.11527
2022-11-14T11:36:11.655Z,65.74352
2022-11-14T11:41:26.021Z,64.42574
2022-11-14T11:46:44.288Z,66.76035
2022-11-14T11:51:45.923Z,67.69882
2022-11-14T11:56:47.563Z,66.96246
2022-11-14T12:01:49.249Z,67.65321
2022-11-14T12:06:51.022Z,64.49344
2022-11-14T12:11:52.789Z,65.42234
2022-11-14T12:16:55.224Z,65.81214
2022-11-14T12:21:58.857Z,65.33183
2022-11-14T12:27:00.997Z,65.10265
2022-11-14T12:32:02.632Z,65.149
2022-11-14T12:37:04.379Z,64.8511
2022-11-14T12:42:06.526Z,65.43449
2022-11-14T12:47:08.428Z,64.07545
2022-11-14T12:52:10.167Z,63.74209
2022-11-14T12:57:11.909Z,63.93972
2022-11-14T13:02:17.988Z,63.49328
2022-11-14T13:07:23.136Z,62.8084
2022-11-14T13:12:24.837Z,62.20813
2022-11-14T13:17:26.534Z,63.05139
2022-11-14T13:22:28.537Z,62.19945
2022-11-14T13:27:52.321Z,62.25194
2022-11-14T13:33:02.380Z,62.6597
2022-11-14T13:38:04.235Z,62.16935
2022-11-14T13:43:06.016Z,62.16059
2022-11-14T13:48:07.667Z,62.80955
2022-11-14T13:53:09.474Z,62.65133
2022-11-14T13:58:11.145Z,63.14503
2022-11-14T14:03:12.815Z,63.48425
2022-11-14T14:08:14.414Z,62.89558
2022-11-14T14:13:16.092Z,63.16444
2022-11-14T14:18:17.714Z,63.26343
2022-11-14T14:23:19.330Z,62.19519
2022-11-14T14:28:21.005Z,61.45806
2022-11-14T14:33:22.648Z,62.19026
2022-11-14T14:38:24.437Z,62.95719
2022-11-14T14:43:26.144Z,62.04354
2022-11-14T14:48:27.954Z,63.20372
2022-11-14T14:53:29.851Z,62.75928
2022-11-14T14:58:31.852Z,61.83001
2022-11-14T15:03:36.840Z,62.38796
2022-11-14T15:08:39.130Z,64.78154
2022-11-14T15:13:40.743Z,66.28033
2022-11-14T15:18:42.427Z,64.50398
2022-11-14T15:23:44.067Z,63.43904
2022-11-14T15:28:45.725Z,64.9271
2022-11-14T15:33:47.368Z,64.40964
2022-11-14T15:38:49.047Z,63.41921
2022-11-14T15:43:50.709Z,63.17207
2022-11-14T15:48:52.453Z,67.74503
2022-11-14T15:53:54.056Z,67.32723
2022-11-14T15:58:55.728Z,64.11383
2022-11-14T16:03:57.396Z,64.96216
2022-11-14T16:08:58.986Z,63.86269
2022-11-14T16:14:00.657Z,62.51955
2022-11-14T16:19:02.364Z,61.90493
2022-11-14T16:24:04.409Z,62.06309
2022-11-14T16:29:06.094Z,61.96185
2022-11-14T16:34:07.795Z,62.141
2022-11-14T16:39:09.464Z,61.77608
2022-11-14T16:44:11.302Z,61.23502
2022-11-14T16:49:12.940Z,63.41493
2022-11-14T16:54:14.544Z,61.72714
2022-11-14T16:59:16.276Z,62.44338
2022-11-14T17:04:18.034Z,60.80441
2022-11-14T17:09:19.640Z,62.56397
2022-11-14T17:14:21.239Z,61.57911
2022-11-14T17:19:23.044Z,62.13768
2022-11-14T17:24:30.014Z,61.24201
2022-11-14T17:29:33.061Z,60.19943
2022-11-14T17:34:34.928Z,61.11492
2022-11-14T17:39:36.597Z,60.23969
2022-11-14T17:44:38.223Z,59.25588
2022-11-14T17:49:39.952Z,59.33151
2022-11-14T17:54:41.711Z,58.87147
2022-11-14T17:59:43.418Z,57.87875
2022-11-14T18:04:45.161Z,58.04535
2022-11-14T18:09:46.844Z,57.23768
2022-11-14T18:14:48.449Z,57.96864
2022-11-14T18:19:50.072Z,58.46268
2022-11-14T18:24:51.658Z,57.1082
2022-11-14T18:29:53.259Z,56.84351
2022-11-14T18:34:54.842Z,56.69452
2022-11-14T18:39:56.602Z,56.29192
2022-11-14T18:44:58.232Z,58.65402
2022-11-14T18:49:59.849Z,57.98439
2022-11-14T18:55:01.493Z,58.69273
2022-11-14T19:00:03.209Z,57.82101
2022-11-14T19:05:04.972Z,56.55538
2022-11-14T19:10:06.605Z,55.85717
2022-11-14T19:15:08.214Z,57.0736
2022-11-14T19:20:14.142Z,57.77368
2022-11-14T19:25:16.603Z,56.33485
2022-11-14T19:30:18.252Z,57.78514
2022-11-14T19:35:20.571Z,58.34489
2022-11-14T19:40:22.663Z,57.07957
2022-11-14T19:45:24.291Z,57.84843
2022-11-14T19:50:25.913Z,58.69496
2022-11-14T19:55:27.549Z,57.58526
2022-11-14T20:00:29.152Z,57.77635
2022-11-14T20:05:30.892Z,57.26565
2022-11-14T20:10:32.552Z,58.20008
2022-11-14T20:15:34.145Z,58.15534
2022-11-14T20:20:35.800Z,58.3169
2022-11-14T20:25:37.472Z,57.61236
2022-11-14T20:30:39.127Z,56.41738
2022-11-14T20:35:40.752Z,54.8641
2022-11-14T20:40:42.378Z,55.91521
2022-11-14T20:45:44.026Z,54.69573
2022-11-14T20:50:45.630Z,52.10119
2022-11-14T20:55:47.235Z,52.92798
2022-11-14T21:00:48.939Z,53.80224
2022-11-14T21:05:50.570Z,56.89144
2022-11-14T21:10:52.331Z,56.41489
2022-11-14T21:15:54.030Z,58.27376
2022-11-14T21:20:55.675Z,59.18364
2022-11-14T21:25:57.363Z,59.56497
2022-11-14T21:30:59.025Z,58.71169
2022-11-14T21:36:11.350Z,60.8776
2022-11-14T21:41:31.810Z,59.57898
2022-11-14T21:46:33.435Z,60.68846
2022-11-14T21:51:35.061Z,60.34227
2022-11-14T21:56:36.761Z,61.4118
2022-11-14T22:01:38.459Z,61.81317
2022-11-14T22:06:40.387Z,59.60124
2022-11-14T22:11:42.150Z,60.44095
2022-11-14T22:16:43.781Z,58.784
2022-11-14T22:21:45.468Z,58.88957
2022-11-14T22:26:47.207Z,60.36866
2022-11-14T22:31:48.820Z,59.70454
2022-11-14T22:36:50.488Z,61.55419
2022-11-14T22:41:56.567Z,61.49145
2022-11-14T22:46:58.266Z,62.91923
2022-11-14T22:51:59.895Z,62.67646
2022-11-14T22:57:01.525Z,63.113
2022-11-14T23:02:03.285Z,62.00414
2022-11-14T23:07:05.031Z,63.33156
2022-11-14T23:12:06.688Z,63.38716
2022-11-14T23:17:08.322Z,62.88346
2022-11-14T23:22:09.941Z,62.55299
2022-11-14T23:27:11.737Z,63.97469
2022-11-14T23:32:13.393Z,64.14274
2022-11-14T23:37:15.022Z,63.17206
2022-11-14T23:42:16.699Z,61.87982
2022-11-14T23:47:18.409Z,63.62487
2022-11-14T23:52:20.039Z,61.40961
2022-11-14T23:57:21.764Z,60.334
